sensor_id;sensor_type;location;lat;lon;timestamp;temperature;humidity
1359;DHT22;673;48.098;14.422;2023-02-28T00:00:50;-1.10;99.90
1359;DHT22;673;48.098;14.422;2023-02-28T00:03:17;-1.10;99.90
1359;DHT22;673;48.098;14.422;2023-02-28T00:05:44;-1.10;99.90
1359;DHT22;673;48.098;14.422;2023-02-28T00:08:11;-1.10;99.90
1359;DHT22;673;48.098;14.422;2023-02-28T00:10:40;-1.10;99.90
1359;DHT22;673;48.098;14.422;2023-02-28T00:13:07;-1.20;99.90
1359;DHT22;673;48.098;14.422;2023-02-28T00:15:34;-1.20;99.90
1359;DHT22;673;48.098;14.422;2023-02-28T00:18:01;-1.20;99.90
1359;DHT22;673;48.098;14.422;2023-02-28T00:20:28;-1.20;99.90
1359;DHT22;673;48.098;14.422;2023-02-28T00:22:56;-1.20;99.90
1359;DHT22;673;48.098;14.422;2023-02-28T00:25:24;-1.30;99.90
1359;DHT22;673;48.098;14.422;2023-02-28T00:27:53;-1.30;99.90
1359;DHT22;673;48.098;14.422;2023-02-28T00:30:21;-1.40;99.90
1359;DHT22;673;48.098;14.422;2023-02-28T00:32:49;-1.40;99.90
1359;DHT22;673;48.098;14.422;2023-02-28T00:35:18;-1.40;99.90
1359;DHT22;673;48.098;14.422;2023-02-28T00:37:45;-1.40;99.90
1359;DHT22;673;48.098;14.422;2023-02-28T00:40:12;-1.50;99.90
1359;DHT22;673;48.098;14.422;2023-02-28T00:42:39;-1.50;99.90
1359;DHT22;673;48.098;14.422;2023-02-28T00:45:08;-1.50;99.90
1359;DHT22;673;48.098;14.422;2023-02-28T00:47:35;-1.50;99.90
1359;DHT22;673;48.098;14.422;2023-02-28T00:50:03;-1.50;99.90
1359;DHT22;673;48.098;14.422;2023-02-28T00:52:30;-1.50;99.90
1359;DHT22;673;48.098;14.422;2023-02-28T00:54:57;-1.50;99.90
1359;DHT22;673;48.098;14.422;2023-02-28T00:57:24;-1.50;99.90
1359;DHT22;673;48.098;14.422;2023-02-28T00:59:51;-1.60;99.90
1359;DHT22;673;48.098;14.422;2023-02-28T01:02:21;-1.60;99.90
1359;DHT22;673;48.098;14.422;2023-02-28T01:04:48;-1.60;99.90
1359;DHT22;673;48.098;14.422;2023-02-28T01:07:15;-1.60;99.90
1359;DHT22;673;48.098;14.422;2023-02-28T01:09:42;-1.60;99.90
1359;DHT22;673;48.098;14.422;2023-02-28T01:12:09;-1.60;99.90
1359;DHT22;673;48.098;14.422;2023-02-28T01:14:36;-1.70;99.90
1359;DHT22;673;48.098;14.422;2023-02-28T01:17:04;-1.70;99.90
1359;DHT22;673;48.098;14.422;2023-02-28T01:19:33;-1.60;99.90
1359;DHT22;673;48.098;14.422;2023-02-28T01:22:01;-1.60;99.90
1359;DHT22;673;48.098;14.422;2023-02-28T01:24:28;-1.70;99.90
1359;DHT22;673;48.098;14.422;2023-02-28T01:26:55;-1.70;99.90
1359;DHT22;673;48.098;14.422;2023-02-28T01:29:22;-1.70;99.90
1359;DHT22;673;48.098;14.422;2023-02-28T01:31:49;-1.70;99.90
1359;DHT22;673;48.098;14.422;2023-02-28T01:34:16;-1.70;99.90
1359;DHT22;673;48.098;14.422;2023-02-28T01:36:46;-1.70;99.90
1359;DHT22;673;48.098;14.422;2023-02-28T01:39:12;-1.70;99.90
1359;DHT22;673;48.098;14.422;2023-02-28T01:41:39;-1.70;99.90
1359;DHT22;673;48.098;14.422;2023-02-28T01:46:49;-1.90;99.90
1359;DHT22;673;48.098;14.422;2023-02-28T01:49:16;-1.90;99.90
1359;DHT22;673;48.098;14.422;2023-02-28T01:51:48;-1.80;99.90
1359;DHT22;673;48.098;14.422;2023-02-28T01:54:19;-1.80;99.90
1359;DHT22;673;48.098;14.422;2023-02-28T01:56:51;-1.80;99.90
1359;DHT22;673;48.098;14.422;2023-02-28T01:59:23;-1.90;99.90
1359;DHT22;673;48.098;14.422;2023-02-28T02:01:53;-1.90;99.90
1359;DHT22;673;48.098;14.422;2023-02-28T02:04:21;-1.90;99.90
1359;DHT22;673;48.098;14.422;2023-02-28T02:06:52;-1.90;99.90
1359;DHT22;673;48.098;14.422;2023-02-28T02:09:19;-1.90;99.90
1359;DHT22;673;48.098;14.422;2023-02-28T02:11:46;-1.90;99.90
1359;DHT22;673;48.098;14.422;2023-02-28T02:14:34;-2.00;99.90
1359;DHT22;673;48.098;14.422;2023-02-28T02:17:14;-2.00;99.90
1359;DHT22;673;48.098;14.422;2023-02-28T02:25:39;-2.10;99.90
1359;DHT22;673;48.098;14.422;2023-02-28T02:28:26;-2.10;99.90
1359;DHT22;673;48.098;14.422;2023-02-28T02:31:24;-2.10;99.90
1359;DHT22;673;48.098;14.422;2023-02-28T02:34:25;-2.10;99.90
1359;DHT22;673;48.098;14.422;2023-02-28T02:37:01;-2.10;99.90
1359;DHT22;673;48.098;14.422;2023-02-28T02:39:34;-2.10;99.90
1359;DHT22;673;48.098;14.422;2023-02-28T02:42:11;-2.20;99.90
1359;DHT22;673;48.098;14.422;2023-02-28T02:44:44;-2.20;99.90
1359;DHT22;673;48.098;14.422;2023-02-28T02:47:15;-2.20;99.90
1359;DHT22;673;48.098;14.422;2023-02-28T02:49:48;-2.20;99.90
1359;DHT22;673;48.098;14.422;2023-02-28T02:52:20;-2.20;99.90
1359;DHT22;673;48.098;14.422;2023-02-28T02:54:48;-2.20;99.90
1359;DHT22;673;48.098;14.422;2023-02-28T02:57:22;-2.20;99.90
1359;DHT22;673;48.098;14.422;2023-02-28T02:59:51;-2.20;99.90
1359;DHT22;673;48.098;14.422;2023-02-28T03:02:21;-2.20;99.90
1359;DHT22;673;48.098;14.422;2023-02-28T03:04:52;-2.10;99.90
1359;DHT22;673;48.098;14.422;2023-02-28T03:07:20;-2.20;99.90
1359;DHT22;673;48.098;14.422;2023-02-28T03:09:51;-2.20;99.90
1359;DHT22;673;48.098;14.422;2023-02-28T03:12:20;-2.20;99.90
1359;DHT22;673;48.098;14.422;2023-02-28T03:14:56;-2.20;99.90
1359;DHT22;673;48.098;14.422;2023-02-28T03:17:40;-2.20;99.90
1359;DHT22;673;48.098;14.422;2023-02-28T03:20:18;-2.30;99.90
1359;DHT22;673;48.098;14.422;2023-02-28T03:23:01;-2.30;99.90
1359;DHT22;673;48.098;14.422;2023-02-28T03:25:35;-2.30;99.90
1359;DHT22;673;48.098;14.422;2023-02-28T03:28:08;-2.30;99.90
1359;DHT22;673;48.098;14.422;2023-02-28T03:30:41;-2.30;99.90
1359;DHT22;673;48.098;14.422;2023-02-28T03:33:11;-2.30;99.90
1359;DHT22;673;48.098;14.422;2023-02-28T03:35:44;-2.30;99.90
1359;DHT22;673;48.098;14.422;2023-02-28T03:38:16;-2.40;99.90
1359;DHT22;673;48.098;14.422;2023-02-28T03:40:48;-2.30;99.90
1359;DHT22;673;48.098;14.422;2023-02-28T03:43:22;-2.40;99.90
1359;DHT22;673;48.098;14.422;2023-02-28T03:45:50;-2.40;99.90
1359;DHT22;673;48.098;14.422;2023-02-28T03:48:21;-2.40;99.90
1359;DHT22;673;48.098;14.422;2023-02-28T03:50:53;-2.40;99.90
1359;DHT22;673;48.098;14.422;2023-02-28T03:53:25;-2.40;99.90
1359;DHT22;673;48.098;14.422;2023-02-28T03:55:56;-2.40;99.90
1359;DHT22;673;48.098;14.422;2023-02-28T03:58:29;-2.40;99.90
1359;DHT22;673;48.098;14.422;2023-02-28T04:01:01;-2.40;99.90
1359;DHT22;673;48.098;14.422;2023-02-28T04:03:35;-2.40;99.90
1359;DHT22;673;48.098;14.422;2023-02-28T04:06:04;-2.40;99.90
1359;DHT22;673;48.098;14.422;2023-02-28T04:08:32;-2.40;99.90
1359;DHT22;673;48.098;14.422;2023-02-28T04:11:02;-2.40;99.90
1359;DHT22;673;48.098;14.422;2023-02-28T04:13:31;-2.40;99.90
1359;DHT22;673;48.098;14.422;2023-02-28T04:15:58;-2.50;99.90
1359;DHT22;673;48.098;14.422;2023-02-28T04:18:25;-2.50;99.90
1359;DHT22;673;48.098;14.422;2023-02-28T04:20:52;-2.50;99.90
1359;DHT22;673;48.098;14.422;2023-02-28T04:23:20;-2.50;99.90
1359;DHT22;673;48.098;14.422;2023-02-28T04:25:47;-2.50;99.90
1359;DHT22;673;48.098;14.422;2023-02-28T04:28:16;-2.50;99.90
1359;DHT22;673;48.098;14.422;2023-02-28T04:30:43;-2.50;99.90
1359;DHT22;673;48.098;14.422;2023-02-28T04:33:10;-2.50;99.90
1359;DHT22;673;48.098;14.422;2023-02-28T04:35:37;-2.50;99.90
1359;DHT22;673;48.098;14.422;2023-02-28T04:38:04;-2.60;99.90
1359;DHT22;673;48.098;14.422;2023-02-28T04:40:32;-2.60;99.90
1359;DHT22;673;48.098;14.422;2023-02-28T04:42:59;-2.60;99.90
1359;DHT22;673;48.098;14.422;2023-02-28T04:45:26;-2.50;99.90
1359;DHT22;673;48.098;14.422;2023-02-28T04:47:55;-2.60;99.90
1359;DHT22;673;48.098;14.422;2023-02-28T04:50:22;-2.70;99.90
1359;DHT22;673;48.098;14.422;2023-02-28T04:52:49;-2.70;99.90
1359;DHT22;673;48.098;14.422;2023-02-28T04:55:16;-2.60;99.90
1359;DHT22;673;48.098;14.422;2023-02-28T04:57:45;-2.60;99.90
1359;DHT22;673;48.098;14.422;2023-02-28T05:00:12;-2.60;99.90
1359;DHT22;673;48.098;14.422;2023-02-28T05:02:42;-2.60;99.90
1359;DHT22;673;48.098;14.422;2023-02-28T05:05:09;-2.60;99.90
1359;DHT22;673;48.098;14.422;2023-02-28T05:07:37;-2.70;99.90
1359;DHT22;673;48.098;14.422;2023-02-28T05:10:05;-2.70;99.90
1359;DHT22;673;48.098;14.422;2023-02-28T05:12:32;-2.70;99.90
1359;DHT22;673;48.098;14.422;2023-02-28T05:15:00;-2.70;99.90
1359;DHT22;673;48.098;14.422;2023-02-28T05:17:27;-2.70;99.90
1359;DHT22;673;48.098;14.422;2023-02-28T05:19:54;-2.70;99.90
1359;DHT22;673;48.098;14.422;2023-02-28T05:22:21;-2.80;99.90
1359;DHT22;673;48.098;14.422;2023-02-28T05:24:48;-2.70;99.90
1359;DHT22;673;48.098;14.422;2023-02-28T05:27:15;-2.80;99.90
1359;DHT22;673;48.098;14.422;2023-02-28T05:29:42;-2.70;99.90
1359;DHT22;673;48.098;14.422;2023-02-28T05:32:11;-2.70;99.90
1359;DHT22;673;48.098;14.422;2023-02-28T05:34:39;-2.70;99.90
1359;DHT22;673;48.098;14.422;2023-02-28T05:37:08;-2.80;99.90
1359;DHT22;673;48.098;14.422;2023-02-28T05:39:37;-2.80;99.90
1359;DHT22;673;48.098;14.422;2023-02-28T05:42:04;-2.80;99.90
1359;DHT22;673;48.098;14.422;2023-02-28T05:44:33;-2.80;99.90
1359;DHT22;673;48.098;14.422;2023-02-28T05:47:00;-2.80;99.90
1359;DHT22;673;48.098;14.422;2023-02-28T05:49:28;-2.80;99.90
1359;DHT22;673;48.098;14.422;2023-02-28T05:51:55;-2.80;99.90
1359;DHT22;673;48.098;14.422;2023-02-28T05:54:22;-2.80;99.90
1359;DHT22;673;48.098;14.422;2023-02-28T05:56:49;-2.80;99.90
1359;DHT22;673;48.098;14.422;2023-02-28T05:59:16;-2.80;99.90
1359;DHT22;673;48.098;14.422;2023-02-28T06:01:44;-2.80;99.90
1359;DHT22;673;48.098;14.422;2023-02-28T06:04:14;-2.80;99.90
1359;DHT22;673;48.098;14.422;2023-02-28T06:06:44;-2.70;99.90
1359;DHT22;673;48.098;14.422;2023-02-28T06:09:12;-2.70;99.90
1359;DHT22;673;48.098;14.422;2023-02-28T06:11:38;-2.70;99.90
1359;DHT22;673;48.098;14.422;2023-02-28T06:14:06;-2.60;99.90
1359;DHT22;673;48.098;14.422;2023-02-28T06:16:34;-2.70;99.90
1359;DHT22;673;48.098;14.422;2023-02-28T06:19:03;-2.60;99.90
1359;DHT22;673;48.098;14.422;2023-02-28T06:21:31;-2.60;99.90
1359;DHT22;673;48.098;14.422;2023-02-28T06:23:59;-2.60;99.90
1359;DHT22;673;48.098;14.422;2023-02-28T06:26:26;-2.50;99.90
1359;DHT22;673;48.098;14.422;2023-02-28T06:28:54;-2.50;99.90
1359;DHT22;673;48.098;14.422;2023-02-28T06:31:21;-2.50;99.90
1359;DHT22;673;48.098;14.422;2023-02-28T06:33:48;-2.50;99.90
1359;DHT22;673;48.098;14.422;2023-02-28T06:36:16;-2.40;99.90
1359;DHT22;673;48.098;14.422;2023-02-28T06:38:43;-2.40;99.90
1359;DHT22;673;48.098;14.422;2023-02-28T06:41:12;-2.30;99.90
1359;DHT22;673;48.098;14.422;2023-02-28T06:43:41;-2.30;99.90
1359;DHT22;673;48.098;14.422;2023-02-28T06:46:11;-2.20;99.90
1359;DHT22;673;48.098;14.422;2023-02-28T06:48:39;-2.20;99.90
1359;DHT22;673;48.098;14.422;2023-02-28T06:51:08;-2.20;99.90
1359;DHT22;673;48.098;14.422;2023-02-28T06:53:35;-2.10;99.90
1359;DHT22;673;48.098;14.422;2023-02-28T06:56:04;-2.10;99.90
1359;DHT22;673;48.098;14.422;2023-02-28T06:58:34;-2.00;99.90
1359;DHT22;673;48.098;14.422;2023-02-28T07:01:01;-1.90;99.90
1359;DHT22;673;48.098;14.422;2023-02-28T07:03:28;-1.90;99.90
1359;DHT22;673;48.098;14.422;2023-02-28T07:05:55;-1.90;99.90
1359;DHT22;673;48.098;14.422;2023-02-28T07:08:23;-1.80;99.90
1359;DHT22;673;48.098;14.422;2023-02-28T07:10:52;-1.70;99.90
1359;DHT22;673;48.098;14.422;2023-02-28T07:13:20;-1.70;99.90
1359;DHT22;673;48.098;14.422;2023-02-28T07:15:54;-1.60;99.90
1359;DHT22;673;48.098;14.422;2023-02-28T07:18:21;-1.60;99.90
1359;DHT22;673;48.098;14.422;2023-02-28T07:20:48;-1.50;99.90
1359;DHT22;673;48.098;14.422;2023-02-28T07:23:15;-1.50;99.90
1359;DHT22;673;48.098;14.422;2023-02-28T07:25:42;-1.40;99.90
1359;DHT22;673;48.098;14.422;2023-02-28T07:28:11;-1.30;99.90
1359;DHT22;673;48.098;14.422;2023-02-28T07:30:38;-1.20;99.90
1359;DHT22;673;48.098;14.422;2023-02-28T07:33:07;-1.30;99.90
1359;DHT22;673;48.098;14.422;2023-02-28T07:35:34;-1.20;99.90
1359;DHT22;673;48.098;14.422;2023-02-28T07:38:01;-1.10;99.90
1359;DHT22;673;48.098;14.422;2023-02-28T07:40:29;-1.10;99.90
1359;DHT22;673;48.098;14.422;2023-02-28T07:42:56;-0.90;99.90
1359;DHT22;673;48.098;14.422;2023-02-28T07:45:25;-0.90;99.90
1359;DHT22;673;48.098;14.422;2023-02-28T07:47:53;-1.00;99.90
1359;DHT22;673;48.098;14.422;2023-02-28T07:50:21;-0.90;99.90
1359;DHT22;673;48.098;14.422;2023-02-28T07:52:48;-0.90;99.90
1359;DHT22;673;48.098;14.422;2023-02-28T07:55:15;-0.90;99.90
1359;DHT22;673;48.098;14.422;2023-02-28T07:57:43;-0.80;99.90
1359;DHT22;673;48.098;14.422;2023-02-28T08:00:11;-0.60;99.90
1359;DHT22;673;48.098;14.422;2023-02-28T08:02:39;-0.50;99.90
1359;DHT22;673;48.098;14.422;2023-02-28T08:05:07;-0.40;99.90
1359;DHT22;673;48.098;14.422;2023-02-28T08:07:35;-0.50;99.90
1359;DHT22;673;48.098;14.422;2023-02-28T08:10:02;-0.30;99.90
1359;DHT22;673;48.098;14.422;2023-02-28T08:12:31;-0.10;99.90
1359;DHT22;673;48.098;14.422;2023-02-28T08:14:58;-0.10;99.90
1359;DHT22;673;48.098;14.422;2023-02-28T08:17:25;0.00;99.90
1359;DHT22;673;48.098;14.422;2023-02-28T08:19:52;-0.10;99.90
1359;DHT22;673;48.098;14.422;2023-02-28T08:22:19;0.00;99.90
1359;DHT22;673;48.098;14.422;2023-02-28T08:24:47;0.00;99.90
1359;DHT22;673;48.098;14.422;2023-02-28T08:27:14;0.00;99.90
1359;DHT22;673;48.098;14.422;2023-02-28T08:29:41;0.10;99.90
1359;DHT22;673;48.098;14.422;2023-02-28T08:32:08;0.10;99.90
1359;DHT22;673;48.098;14.422;2023-02-28T08:34:35;0.20;99.90
1359;DHT22;673;48.098;14.422;2023-02-28T08:37:02;0.20;99.90
1359;DHT22;673;48.098;14.422;2023-02-28T08:39:29;0.30;99.90
1359;DHT22;673;48.098;14.422;2023-02-28T08:41:57;0.40;99.90
1359;DHT22;673;48.098;14.422;2023-02-28T08:44:24;0.50;99.90
1359;DHT22;673;48.098;14.422;2023-02-28T08:46:51;0.50;99.90
1359;DHT22;673;48.098;14.422;2023-02-28T08:49:18;0.60;99.90
1359;DHT22;673;48.098;14.422;2023-02-28T08:51:45;0.50;99.90
1359;DHT22;673;48.098;14.422;2023-02-28T08:54:12;0.60;99.90
1359;DHT22;673;48.098;14.422;2023-02-28T08:56:41;0.70;99.90
1359;DHT22;673;48.098;14.422;2023-02-28T08:59:10;0.90;99.90
1359;DHT22;673;48.098;14.422;2023-02-28T09:01:36;0.80;99.90
1359;DHT22;673;48.098;14.422;2023-02-28T09:04:04;0.90;99.90
1359;DHT22;673;48.098;14.422;2023-02-28T09:06:32;1.10;99.90
1359;DHT22;673;48.098;14.422;2023-02-28T09:08:59;1.10;99.90
1359;DHT22;673;48.098;14.422;2023-02-28T09:11:27;1.20;99.90
1359;DHT22;673;48.098;14.422;2023-02-28T09:13:54;1.40;99.90
1359;DHT22;673;48.098;14.422;2023-02-28T09:16:23;1.50;99.90
1359;DHT22;673;48.098;14.422;2023-02-28T09:18:50;1.60;99.90
1359;DHT22;673;48.098;14.422;2023-02-28T09:21:18;1.70;99.90
1359;DHT22;673;48.098;14.422;2023-02-28T09:23:47;1.80;99.90
1359;DHT22;673;48.098;14.422;2023-02-28T09:26:16;1.60;99.90
1359;DHT22;673;48.098;14.422;2023-02-28T09:28:43;1.50;99.90
1359;DHT22;673;48.098;14.422;2023-02-28T09:31:13;1.60;99.90
1359;DHT22;673;48.098;14.422;2023-02-28T09:33:42;1.80;99.90
1359;DHT22;673;48.098;14.422;2023-02-28T09:36:09;1.80;99.90
1359;DHT22;673;48.098;14.422;2023-02-28T09:38:36;2.00;99.90
1359;DHT22;673;48.098;14.422;2023-02-28T09:41:08;2.00;99.90
1359;DHT22;673;48.098;14.422;2023-02-28T09:43:39;2.00;99.90
1359;DHT22;673;48.098;14.422;2023-02-28T09:46:14;2.30;99.90
1359;DHT22;673;48.098;14.422;2023-02-28T09:48:47;2.30;99.90
1359;DHT22;673;48.098;14.422;2023-02-28T09:51:30;2.20;99.90
1359;DHT22;673;48.098;14.422;2023-02-28T09:54:00;2.30;99.90
1359;DHT22;673;48.098;14.422;2023-02-28T09:56:32;2.20;99.90
1359;DHT22;673;48.098;14.422;2023-02-28T09:59:02;2.30;99.90
1359;DHT22;673;48.098;14.422;2023-02-28T10:01:35;2.10;99.90
1359;DHT22;673;48.098;14.422;2023-02-28T10:04:09;2.40;99.90
1359;DHT22;673;48.098;14.422;2023-02-28T10:06:43;2.30;99.90
1359;DHT22;673;48.098;14.422;2023-02-28T10:09:15;2.40;99.90
1359;DHT22;673;48.098;14.422;2023-02-28T10:11:45;2.40;99.90
1359;DHT22;673;48.098;14.422;2023-02-28T10:14:15;2.70;99.90
1359;DHT22;673;48.098;14.422;2023-02-28T10:16:45;2.70;99.90
1359;DHT22;673;48.098;14.422;2023-02-28T10:19:22;2.80;99.90
1359;DHT22;673;48.098;14.422;2023-02-28T10:21:56;2.80;99.90
1359;DHT22;673;48.098;14.422;2023-02-28T10:24:30;2.70;99.90
1359;DHT22;673;48.098;14.422;2023-02-28T10:27:01;3.00;99.90
1359;DHT22;673;48.098;14.422;2023-02-28T10:29:32;3.20;99.90
1359;DHT22;673;48.098;14.422;2023-02-28T10:32:01;3.30;99.90
1359;DHT22;673;48.098;14.422;2023-02-28T10:34:30;3.30;99.90
1359;DHT22;673;48.098;14.422;2023-02-28T10:36:58;3.20;99.90
1359;DHT22;673;48.098;14.422;2023-02-28T10:39:40;3.30;99.90
1359;DHT22;673;48.098;14.422;2023-02-28T10:42:21;3.10;99.90
1359;DHT22;673;48.098;14.422;2023-02-28T10:45:09;3.10;99.90
1359;DHT22;673;48.098;14.422;2023-02-28T10:47:42;3.20;99.90
1359;DHT22;673;48.098;14.422;2023-02-28T10:50:31;3.50;99.90
1359;DHT22;673;48.098;14.422;2023-02-28T10:53:13;3.50;99.90
1359;DHT22;673;48.098;14.422;2023-02-28T10:55:41;3.60;99.90
1359;DHT22;673;48.098;14.422;2023-02-28T10:58:21;3.70;99.90
1359;DHT22;673;48.098;14.422;2023-02-28T11:00:48;3.60;99.90
1359;DHT22;673;48.098;14.422;2023-02-28T11:03:25;3.40;99.90
1359;DHT22;673;48.098;14.422;2023-02-28T11:05:56;3.70;99.90
1359;DHT22;673;48.098;14.422;2023-02-28T11:08:23;3.80;99.90
1359;DHT22;673;48.098;14.422;2023-02-28T11:10:55;3.80;99.90
1359;DHT22;673;48.098;14.422;2023-02-28T11:13:27;4.10;99.90
1359;DHT22;673;48.098;14.422;2023-02-28T11:15:55;4.00;99.90
1359;DHT22;673;48.098;14.422;2023-02-28T11:18:27;3.80;99.90
1359;DHT22;673;48.098;14.422;2023-02-28T11:20:58;3.70;99.90
1359;DHT22;673;48.098;14.422;2023-02-28T11:23:28;3.90;99.90
1359;DHT22;673;48.098;14.422;2023-02-28T11:26:00;4.00;99.90
1359;DHT22;673;48.098;14.422;2023-02-28T11:28:29;4.00;99.90
1359;DHT22;673;48.098;14.422;2023-02-28T11:31:08;4.20;99.90
1359;DHT22;673;48.098;14.422;2023-02-28T11:33:42;4.40;99.90
1359;DHT22;673;48.098;14.422;2023-02-28T11:36:14;4.50;99.90
1359;DHT22;673;48.098;14.422;2023-02-28T11:38:41;4.50;99.90
1359;DHT22;673;48.098;14.422;2023-02-28T11:41:22;4.30;99.90
1359;DHT22;673;48.098;14.422;2023-02-28T11:44:10;4.20;99.90
1359;DHT22;673;48.098;14.422;2023-02-28T11:46:47;4.50;99.90
1359;DHT22;673;48.098;14.422;2023-02-28T11:49:30;4.80;99.90
1359;DHT22;673;48.098;14.422;2023-02-28T11:52:01;4.70;99.90
1359;DHT22;673;48.098;14.422;2023-02-28T11:54:47;5.00;99.90
1359;DHT22;673;48.098;14.422;2023-02-28T11:57:41;4.90;99.90
1359;DHT22;673;48.098;14.422;2023-02-28T12:00:38;4.70;99.90
1359;DHT22;673;48.098;14.422;2023-02-28T12:03:16;4.50;99.90
1359;DHT22;673;48.098;14.422;2023-02-28T12:05:49;4.30;99.90
1359;DHT22;673;48.098;14.422;2023-02-28T12:08:40;4.60;99.90
1359;DHT22;673;48.098;14.422;2023-02-28T12:11:14;5.00;99.90
1359;DHT22;673;48.098;14.422;2023-02-28T12:13:51;5.10;99.90
1359;DHT22;673;48.098;14.422;2023-02-28T12:16:45;4.90;99.90
1359;DHT22;673;48.098;14.422;2023-02-28T12:19:19;4.90;99.90
1359;DHT22;673;48.098;14.422;2023-02-28T12:22:12;5.10;99.90
1359;DHT22;673;48.098;14.422;2023-02-28T12:27:41;5.30;99.90
1359;DHT22;673;48.098;14.422;2023-02-28T12:30:16;5.00;99.90
1359;DHT22;673;48.098;14.422;2023-02-28T12:32:47;5.00;99.90
1359;DHT22;673;48.098;14.422;2023-02-28T12:35:17;5.00;99.90
1359;DHT22;673;48.098;14.422;2023-02-28T12:37:49;4.90;99.90
1359;DHT22;673;48.098;14.422;2023-02-28T12:40:20;5.20;99.90
1359;DHT22;673;48.098;14.422;2023-02-28T12:42:50;5.30;99.90
1359;DHT22;673;48.098;14.422;2023-02-28T12:45:20;5.30;99.90
1359;DHT22;673;48.098;14.422;2023-02-28T12:47:52;5.30;99.90
1359;DHT22;673;48.098;14.422;2023-02-28T12:50:23;5.20;99.90
1359;DHT22;673;48.098;14.422;2023-02-28T12:52:56;5.20;99.90
1359;DHT22;673;48.098;14.422;2023-02-28T12:55:33;5.30;99.90
1359;DHT22;673;48.098;14.422;2023-02-28T12:58:10;5.40;99.90
1359;DHT22;673;48.098;14.422;2023-02-28T13:00:46;5.40;99.90
1359;DHT22;673;48.098;14.422;2023-02-28T13:03:43;5.30;99.90
1359;DHT22;673;48.098;14.422;2023-02-28T13:06:39;5.30;99.90
1359;DHT22;673;48.098;14.422;2023-02-28T13:09:11;5.40;99.90
1359;DHT22;673;48.098;14.422;2023-02-28T13:11:44;5.40;99.90
1359;DHT22;673;48.098;14.422;2023-02-28T13:14:24;5.10;99.90
1359;DHT22;673;48.098;14.422;2023-02-28T13:16:59;5.30;99.90
1359;DHT22;673;48.098;14.422;2023-02-28T13:19:28;5.50;99.90
1359;DHT22;673;48.098;14.422;2023-02-28T13:21:57;5.50;99.90
1359;DHT22;673;48.098;14.422;2023-02-28T13:24:43;5.40;99.90
1359;DHT22;673;48.098;14.422;2023-02-28T13:27:31;5.60;99.90
1359;DHT22;673;48.098;14.422;2023-02-28T13:29:59;5.60;99.90
1359;DHT22;673;48.098;14.422;2023-02-28T13:32:36;5.50;99.90
1359;DHT22;673;48.098;14.422;2023-02-28T13:35:36;5.40;99.90
1359;DHT22;673;48.098;14.422;2023-02-28T13:38:34;5.20;99.90
1359;DHT22;673;48.098;14.422;2023-02-28T13:41:42;5.10;99.90
1359;DHT22;673;48.098;14.422;2023-02-28T13:44:13;5.20;99.90
1359;DHT22;673;48.098;14.422;2023-02-28T13:49:44;5.30;99.90
1359;DHT22;673;48.098;14.422;2023-02-28T13:52:16;5.30;99.90
1359;DHT22;673;48.098;14.422;2023-02-28T13:54:56;5.40;99.90
1359;DHT22;673;48.098;14.422;2023-02-28T13:57:35;5.50;99.90
1359;DHT22;673;48.098;14.422;2023-02-28T14:00:18;5.60;99.90
1359;DHT22;673;48.098;14.422;2023-02-28T14:03:04;5.60;99.90
1359;DHT22;673;48.098;14.422;2023-02-28T14:05:33;5.40;99.90
1359;DHT22;673;48.098;14.422;2023-02-28T14:08:05;5.50;99.90
1359;DHT22;673;48.098;14.422;2023-02-28T14:10:39;5.40;99.90
1359;DHT22;673;48.098;14.422;2023-02-28T14:13:39;5.10;99.90
1359;DHT22;673;48.098;14.422;2023-02-28T14:16:13;5.10;99.90
1359;DHT22;673;48.098;14.422;2023-02-28T14:18:42;5.10;99.90
1359;DHT22;673;48.098;14.422;2023-02-28T14:21:21;5.20;99.90
1359;DHT22;673;48.098;14.422;2023-02-28T14:24:24;5.30;99.90
1359;DHT22;673;48.098;14.422;2023-02-28T14:27:36;5.20;99.90
1359;DHT22;673;48.098;14.422;2023-02-28T14:30:35;5.40;99.90
1359;DHT22;673;48.098;14.422;2023-02-28T14:33:25;5.50;99.90
1359;DHT22;673;48.098;14.422;2023-02-28T14:38:50;5.40;99.90
1359;DHT22;673;48.098;14.422;2023-02-28T14:41:23;5.40;99.90
1359;DHT22;673;48.098;14.422;2023-02-28T14:43:53;5.60;99.90
1359;DHT22;673;48.098;14.422;2023-02-28T14:46:23;5.40;99.90
1359;DHT22;673;48.098;14.422;2023-02-28T14:48:53;5.40;99.90
1359;DHT22;673;48.098;14.422;2023-02-28T14:51:22;5.40;99.90
1359;DHT22;673;48.098;14.422;2023-02-28T14:53:52;5.60;99.90
1359;DHT22;673;48.098;14.422;2023-02-28T14:56:26;5.50;99.90
1359;DHT22;673;48.098;14.422;2023-02-28T14:58:56;5.40;99.90
1359;DHT22;673;48.098;14.422;2023-02-28T15:01:24;5.60;99.90
1359;DHT22;673;48.098;14.422;2023-02-28T15:04:00;5.80;99.90
1359;DHT22;673;48.098;14.422;2023-02-28T15:06:28;5.80;99.90
1359;DHT22;673;48.098;14.422;2023-02-28T15:09:09;5.80;99.90
1359;DHT22;673;48.098;14.422;2023-02-28T15:11:37;5.80;99.30
1359;DHT22;673;48.098;14.422;2023-02-28T15:14:05;5.60;99.90
1359;DHT22;673;48.098;14.422;2023-02-28T15:16:34;5.70;99.90
1359;DHT22;673;48.098;14.422;2023-02-28T15:19:06;5.50;99.90
1359;DHT22;673;48.098;14.422;2023-02-28T15:21:35;5.50;99.90
1359;DHT22;673;48.098;14.422;2023-02-28T15:24:05;5.40;99.90
1359;DHT22;673;48.098;14.422;2023-02-28T15:26:36;5.30;99.90
1359;DHT22;673;48.098;14.422;2023-02-28T15:29:06;5.20;99.90
1359;DHT22;673;48.098;14.422;2023-02-28T15:31:35;5.10;99.90
1359;DHT22;673;48.098;14.422;2023-02-28T15:34:05;5.00;99.90
1359;DHT22;673;48.098;14.422;2023-02-28T15:36:34;4.80;99.90
1359;DHT22;673;48.098;14.422;2023-02-28T15:39:16;4.70;99.90
1359;DHT22;673;48.098;14.422;2023-02-28T15:41:44;4.60;99.90
1359;DHT22;673;48.098;14.422;2023-02-28T15:44:17;4.50;99.90
1359;DHT22;673;48.098;14.422;2023-02-28T15:46:55;4.50;99.90
1359;DHT22;673;48.098;14.422;2023-02-28T15:49:25;4.50;99.90
1359;DHT22;673;48.098;14.422;2023-02-28T15:51:53;4.40;99.90
1359;DHT22;673;48.098;14.422;2023-02-28T15:54:25;4.30;99.90
1359;DHT22;673;48.098;14.422;2023-02-28T15:56:56;4.30;99.90
1359;DHT22;673;48.098;14.422;2023-02-28T15:59:26;4.20;99.90
1359;DHT22;673;48.098;14.422;2023-02-28T16:02:14;4.20;99.90
1359;DHT22;673;48.098;14.422;2023-02-28T16:05:16;4.10;99.90
1359;DHT22;673;48.098;14.422;2023-02-28T16:07:44;4.00;99.90
1359;DHT22;673;48.098;14.422;2023-02-28T16:10:13;4.00;99.90
1359;DHT22;673;48.098;14.422;2023-02-28T16:12:41;3.90;99.90
1359;DHT22;673;48.098;14.422;2023-02-28T16:15:17;3.90;99.90
1359;DHT22;673;48.098;14.422;2023-02-28T16:17:44;3.90;99.90
1359;DHT22;673;48.098;14.422;2023-02-28T16:20:15;3.80;99.90
1359;DHT22;673;48.098;14.422;2023-02-28T16:22:42;3.80;99.90
1359;DHT22;673;48.098;14.422;2023-02-28T16:25:12;3.70;99.90
1359;DHT22;673;48.098;14.422;2023-02-28T16:27:39;3.70;99.90
1359;DHT22;673;48.098;14.422;2023-02-28T16:30:09;3.60;99.90
1359;DHT22;673;48.098;14.422;2023-02-28T16:32:42;3.60;99.90
1359;DHT22;673;48.098;14.422;2023-02-28T16:35:10;3.50;99.90
1359;DHT22;673;48.098;14.422;2023-02-28T16:37:41;3.50;99.90
1359;DHT22;673;48.098;14.422;2023-02-28T16:40:14;3.50;99.90
1359;DHT22;673;48.098;14.422;2023-02-28T16:42:42;3.50;99.90
1359;DHT22;673;48.098;14.422;2023-02-28T16:45:17;3.40;99.90
1359;DHT22;673;48.098;14.422;2023-02-28T16:47:46;3.30;99.90
1359;DHT22;673;48.098;14.422;2023-02-28T16:50:15;3.30;99.90
1359;DHT22;673;48.098;14.422;2023-02-28T16:52:43;3.40;99.90
1359;DHT22;673;48.098;14.422;2023-02-28T16:55:10;3.30;99.90